Time;durP1;ratioP1;P1;durP2;ratioP2;P2;SDS_P1;SDS_P2;PMS_P1;PMS_P2;Temp;Humidity;BMP_temperature;BMP_pressure;BME280_temperature;BME280_humidity;BME280_pressure;Samples;Min_cycle;Max_cycle;Signal;HPM_P1;HPM_P2
2022/01/31 00:02:10;;;;;;;18.55;17.15;;;3.60;90.50;;;;;;5075661;28;20431;-75
2022/01/31 00:04:36;;;;;;;18.98;17.77;;;3.60;90.40;;;;;;5078989;28;20028;-75
2022/01/31 00:07:03;;;;;;;20.13;18.38;;;3.60;90.40;;;;;;5100990;28;20508;-75
2022/01/31 00:09:29;;;;;;;19.33;17.95;;;3.60;90.40;;;;;;5099153;28;20027;-74
2022/01/31 00:12:05;;;;;;;20.10;18.52;;;3.60;90.50;;;;;;5075546;28;20118;-73
2022/01/31 00:16:59;;;;;;;22.33;19.98;;;3.60;90.40;;;;;;5097590;28;20033;-74
2022/01/31 00:19:25;;;;;;;20.83;19.05;;;3.60;90.40;;;;;;5097660;28;20361;-76
2022/01/31 00:21:51;;;;;;;18.70;17.50;;;3.60;90.40;;;;;;5079397;28;20039;-74
2022/01/31 00:24:17;;;;;;;20.85;18.98;;;3.50;90.40;;;;;;5097596;28;20044;-76
2022/01/31 00:26:42;;;;;;;25.83;23.10;;;3.50;90.40;;;;;;5097483;28;20535;-75
2022/01/31 00:29:09;;;;;;;21.10;19.25;;;3.50;90.30;;;;;;5079254;28;20032;-74
2022/01/31 00:31:34;;;;;;;19.50;17.98;;;3.50;90.30;;;;;;5097468;28;20024;-75
2022/01/31 00:34:00;;;;;;;20.30;19.10;;;3.50;90.30;;;;;;5079054;28;20032;-74
2022/01/31 00:36:26;;;;;;;17.88;16.88;;;3.50;90.30;;;;;;5097184;28;20043;-74
2022/01/31 00:38:51;;;;;;;16.77;15.63;;;3.40;90.40;;;;;;5097344;28;20052;-74
2022/01/31 00:41:17;;;;;;;15.25;14.45;;;3.40;90.40;;;;;;5097289;28;20024;-75
2022/01/31 00:43:54;;;;;;;16.10;15.18;;;3.40;90.40;;;;;;5078866;28;20039;-75
2022/01/31 00:46:26;;;;;;;16.63;15.63;;;3.40;90.50;;;;;;5097375;28;20031;-75
2022/01/31 00:48:51;;;;;;;16.85;15.85;;;3.40;90.50;;;;;;5096960;28;20031;-75
2022/01/31 00:51:17;;;;;;;18.92;17.52;;;3.40;90.50;;;;;;5078790;28;20032;-75
2022/01/31 00:53:43;;;;;;;17.88;16.50;;;3.40;90.60;;;;;;5096991;28;20024;-74
2022/01/31 00:56:09;;;;;;;17.30;16.02;;;3.50;90.60;;;;;;5096820;28;20032;-73
2022/01/31 00:58:36;;;;;;;18.55;17.35;;;3.40;90.60;;;;;;5078637;28;20028;-74
2022/01/31 01:01:02;;;;;;;19.25;17.88;;;3.40;90.60;;;;;;5096826;28;20031;-72
2022/01/31 01:03:27;;;;;;;20.52;18.92;;;3.50;90.60;;;;;;5078721;28;20028;-74
2022/01/31 01:05:53;;;;;;;21.77;19.85;;;3.40;90.60;;;;;;5096442;28;20359;-75
2022/01/31 01:08:19;;;;;;;20.85;19.42;;;3.50;90.60;;;;;;5096741;28;20035;-75
2022/01/31 01:10:45;;;;;;;21.27;19.45;;;3.50;90.60;;;;;;5078267;28;20027;-72
2022/01/31 01:13:11;;;;;;;22.48;20.77;;;3.50;90.60;;;;;;5096780;28;20027;-74
2022/01/31 01:15:37;;;;;;;20.85;19.42;;;3.50;90.60;;;;;;5078368;28;20073;-75
2022/01/31 01:18:02;;;;;;;20.75;18.83;;;3.50;90.70;;;;;;5096349;28;20036;-75
2022/01/31 01:20:29;;;;;;;22.20;20.30;;;3.50;90.70;;;;;;5078220;28;20396;-74
2022/01/31 01:22:55;;;;;;;21.10;19.80;;;3.60;90.70;;;;;;5096235;28;20108;-75
2022/01/31 01:25:21;;;;;;;19.90;18.50;;;3.60;90.60;;;;;;5095191;28;20533;-73
2022/01/31 01:27:50;;;;;;;21.33;19.33;;;3.60;90.60;;;;;;5096165;28;20060;-73
2022/01/31 01:30:16;;;;;;;20.52;19.20;;;3.60;90.60;;;;;;5078667;28;20043;-73
2022/01/31 01:32:58;;;;;;;21.20;19.83;;;3.60;90.50;;;;;;5096106;28;20379;-74
2022/01/31 01:35:26;;;;;;;18.35;17.00;;;3.60;90.50;;;;;;5096194;28;20505;-73
2022/01/31 01:37:52;;;;;;;18.55;17.55;;;3.60;90.40;;;;;;5096212;28;20024;-75
2022/01/31 01:40:17;;;;;;;17.92;16.92;;;3.60;90.50;;;;;;5095822;28;20024;-74
2022/01/31 01:42:43;;;;;;;19.38;17.83;;;3.60;90.40;;;;;;5095826;28;20028;-76
2022/01/31 01:45:09;;;;;;;20.00;18.33;;;3.60;90.50;;;;;;5077755;28;20032;-75
2022/01/31 01:47:35;;;;;;;19.55;18.33;;;3.60;90.40;;;;;;5095834;28;20116;-74
2022/01/31 01:50:01;;;;;;;20.85;19.20;;;3.70;90.50;;;;;;5077712;28;20066;-74
2022/01/31 01:52:26;;;;;;;22.30;20.45;;;3.70;90.50;;;;;;5077641;28;20028;-75
2022/01/31 01:54:52;;;;;;;25.35;22.73;;;3.70;90.50;;;;;;5077480;28;20024;-73
2022/01/31 01:57:20;;;;;;;20.50;18.83;;;3.70;90.50;;;;;;5077473;28;20116;-74
2022/01/31 01:59:46;;;;;;;20.45;18.58;;;3.70;90.50;;;;;;5095622;28;20080;-74
2022/01/31 02:02:12;;;;;;;19.65;18.38;;;3.70;90.60;;;;;;5095735;28;20106;-74
2022/01/31 02:04:40;;;;;;;20.60;19.10;;;3.80;90.60;;;;;;5077260;28;20062;-74
2022/01/31 02:07:06;;;;;;;19.75;18.38;;;3.80;90.60;;;;;;5077231;28;20025;-73
2022/01/31 02:09:41;;;;;;;19.85;18.13;;;3.80;90.60;;;;;;5095813;28;20411;-74
2022/01/31 02:12:07;;;;;;;23.70;21.92;;;3.80;90.50;;;;;;5077682;28;20073;-73
2022/01/31 02:14:34;;;;;;;19.00;17.75;;;3.80;90.50;;;;;;5095338;28;20036;-74
2022/01/31 02:17:00;;;;;;;21.10;19.40;;;3.80;90.40;;;;;;5077479;28;20046;-72
2022/01/31 02:19:25;;;;;;;20.83;19.33;;;3.80;90.40;;;;;;5077202;28;20513;-74
2022/01/31 02:21:53;;;;;;;19.63;18.08;;;3.80;90.50;;;;;;5094871;28;20091;-73
2022/01/31 02:24:19;;;;;;;17.27;16.13;;;3.80;90.40;;;;;;5057140;28;20049;-73
2022/01/31 02:26:45;;;;;;;18.20;17.20;;;3.80;90.40;;;;;;5055005;28;20115;-72
2022/01/31 02:29:11;;;;;;;18.50;17.30;;;3.80;90.30;;;;;;5054846;28;20112;-72
2022/01/31 02:31:42;;;;;;;18.95;17.83;;;3.80;90.30;;;;;;5058532;28;20021;-73
2022/01/31 02:34:08;;;;;;;17.50;16.60;;;3.70;90.20;;;;;;5064090;28;20040;-73
2022/01/31 02:36:33;;;;;;;18.02;17.10;;;3.70;90.10;;;;;;5062902;28;20029;-73
2022/01/31 02:38:59;;;;;;;18.95;17.92;;;3.60;90.00;;;;;;5053499;28;20460;-73
2022/01/31 02:41:27;;;;;;;19.58;18.25;;;3.60;90.00;;;;;;5053607;28;20425;-73
2022/01/31 02:43:54;;;;;;;19.27;18.25;;;3.60;90.10;;;;;;5054594;28;20059;-73
2022/01/31 02:46:23;;;;;;;22.08;20.67;;;3.60;90.10;;;;;;5054694;28;20028;-72
2022/01/31 02:48:51;;;;;;;20.67;19.50;;;3.60;90.10;;;;;;5053068;28;20037;-75
2022/01/31 02:51:21;;;;;;;23.13;21.73;;;3.60;90.10;;;;;;5053162;28;20031;-73
2022/01/31 02:53:47;;;;;;;20.75;19.45;;;3.60;90.10;;;;;;5054461;28;20021;-73
2022/01/31 02:56:12;;;;;;;22.92;21.65;;;3.60;90.00;;;;;;5054262;28;20039;-75
2022/01/31 02:58:38;;;;;;;19.75;18.75;;;3.60;90.00;;;;;;5054605;28;20048;-75
2022/01/31 03:01:04;;;;;;;19.85;18.95;;;3.60;90.00;;;;;;5053013;28;20021;-74
2022/01/31 03:03:30;;;;;;;19.80;18.67;;;3.60;89.90;;;;;;5052872;28;20025;-74
2022/01/31 03:05:56;;;;;;;16.73;15.93;;;3.70;90.00;;;;;;5054096;28;20467;-74
2022/01/31 03:08:24;;;;;;;15.48;14.77;;;3.70;89.90;;;;;;5053184;28;20178;-75
2022/01/31 03:10:50;;;;;;;17.17;16.27;;;3.70;89.80;;;;;;5053837;28;20478;-74
2022/01/31 03:13:15;;;;;;;18.08;17.30;;;3.70;89.80;;;;;;5052722;28;20521;-75
2022/01/31 03:15:41;;;;;;;18.80;17.80;;;3.70;89.60;;;;;;5052765;28;20037;-74
2022/01/31 03:18:07;;;;;;;19.13;18.13;;;3.70;89.40;;;;;;5052648;28;20036;-73
2022/01/31 03:20:33;;;;;;;19.00;17.83;;;3.70;89.10;;;;;;5054192;28;20025;-74
2022/01/31 03:22:59;;;;;;;19.02;17.98;;;3.70;88.90;;;;;;5052364;28;20056;-75
2022/01/31 03:25:25;;;;;;;18.25;17.15;;;3.60;88.90;;;;;;5053727;28;20064;-74
2022/01/31 03:27:51;;;;;;;20.25;19.25;;;3.60;88.80;;;;;;5052614;28;20083;-74
2022/01/31 03:30:21;;;;;;;22.23;20.92;;;3.60;88.80;;;;;;5052492;28;20029;-74
2022/01/31 03:32:47;;;;;;;22.85;21.73;;;3.60;89.00;;;;;;5052344;28;20029;-72
2022/01/31 03:35:13;;;;;;;16.33;15.63;;;3.60;89.70;;;;;;5053562;28;20040;-75
2022/01/31 03:37:39;;;;;;;16.55;15.75;;;3.60;89.00;;;;;;5052390;28;20048;-71
2022/01/31 03:40:06;;;;;;;15.70;15.00;;;3.60;88.80;;;;;;5053733;28;20025;-74
2022/01/31 03:42:32;;;;;;;18.15;17.08;;;3.50;88.50;;;;;;5053390;28;20025;-75
2022/01/31 03:44:58;;;;;;;17.48;16.58;;;3.50;88.40;;;;;;5053442;28;20033;-73
2022/01/31 03:47:24;;;;;;;16.00;15.20;;;3.50;88.40;;;;;;5052119;28;20128;-73
2022/01/31 03:49:50;;;;;;;15.40;14.20;;;3.40;88.30;;;;;;5053029;28;20028;-75
2022/01/31 03:52:17;;;;;;;18.23;17.13;;;3.40;88.40;;;;;;5053465;28;20032;-74
2022/01/31 03:54:43;;;;;;;15.77;14.80;;;3.30;88.20;;;;;;5052302;28;20463;-74
2022/01/31 03:57:09;;;;;;;14.02;13.23;;;3.30;88.30;;;;;;5053507;28;20491;-73
2022/01/31 03:59:35;;;;;;;15.50;14.63;;;3.20;88.30;;;;;;5053407;28;20021;-72
2022/01/31 04:02:03;;;;;;;16.77;15.63;;;3.20;88.40;;;;;;5052426;28;20467;-73
2022/01/31 04:04:28;;;;;;;17.38;16.42;;;3.30;88.60;;;;;;5052959;28;20025;-74
2022/01/31 04:06:54;;;;;;;17.25;16.45;;;3.30;88.60;;;;;;5052195;28;20037;-75
2022/01/31 04:09:20;;;;;;;17.30;16.30;;;3.30;88.70;;;;;;5051955;28;20036;-75
2022/01/31 04:11:46;;;;;;;16.40;15.38;;;3.30;88.60;;;;;;5052271;28;20048;-74
2022/01/31 04:14:12;;;;;;;16.38;15.50;;;3.30;88.60;;;;;;5052324;28;20033;-72
2022/01/31 04:16:38;;;;;;;19.23;18.13;;;3.30;88.40;;;;;;5052109;28;20035;-72
2022/01/31 04:19:04;;;;;;;18.95;17.85;;;3.30;88.20;;;;;;5050653;28;20104;-74
2022/01/31 04:21:30;;;;;;;18.20;17.20;;;3.20;87.90;;;;;;5051795;28;20028;-71
2022/01/31 04:23:56;;;;;;;19.85;18.73;;;3.20;87.70;;;;;;5063527;28;20505;-75
2022/01/31 04:26:21;;;;;;;17.08;16.27;;;3.10;87.70;;;;;;5072151;28;20090;-74
2022/01/31 04:28:50;;;;;;;16.88;15.98;;;3.10;87.50;;;;;;5071689;28;20028;-73
2022/01/31 04:33:50;;;;;;;16.75;15.85;;;3.00;87.70;;;;;;5073279;28;20534;-73
2022/01/31 04:36:18;;;;;;;15.13;14.35;;;3.00;87.70;;;;;;5073031;28;20024;-71
2022/01/31 04:38:45;;;;;;;17.33;16.58;;;2.90;87.60;;;;;;5071501;28;20025;-71
2022/01/31 04:41:11;;;;;;;17.17;16.38;;;2.90;87.60;;;;;;5071797;28;20123;-74
2022/01/31 04:43:37;;;;;;;17.95;17.15;;;2.90;87.60;;;;;;5071826;28;20060;-75
2022/01/31 04:46:06;;;;;;;20.55;19.23;;;2.90;87.70;;;;;;5071878;28;20028;-73
2022/01/31 04:48:32;;;;;;;21.45;20.40;;;2.80;87.70;;;;;;5072211;28;20133;-73
2022/01/31 04:50:58;;;;;;;21.40;20.27;;;2.90;87.70;;;;;;5072211;28;20029;-73
2022/01/31 04:53:24;;;;;;;22.55;21.15;;;2.80;87.60;;;;;;5073149;28;20031;-72
2022/01/31 04:55:50;;;;;;;21.40;20.20;;;2.80;87.60;;;;;;5073032;28;20032;-72
2022/01/31 04:58:15;;;;;;;21.02;19.77;;;2.80;87.60;;;;;;5075072;28;20029;-73
2022/01/31 05:00:42;;;;;;;22.08;20.77;;;2.80;87.60;;;;;;5081451;28;20034;-72
2022/01/31 05:03:17;;;;;;;22.80;21.52;;;2.80;87.60;;;;;;5086094;28;20049;-73
2022/01/31 05:05:43;;;;;;;25.33;23.75;;;2.90;87.70;;;;;;5076315;28;20490;-74
2022/01/31 05:08:09;;;;;;;23.55;21.90;;;2.90;87.80;;;;;;5076550;28;20115;-75
2022/01/31 05:10:38;;;;;;;21.92;20.50;;;2.90;87.80;;;;;;5076019;28;20539;-74
2022/01/31 05:13:03;;;;;;;21.48;20.00;;;2.90;87.70;;;;;;5074425;28;20060;-76
2022/01/31 05:15:29;;;;;;;22.63;21.52;;;3.00;87.90;;;;;;5075045;28;20408;-75
2022/01/31 05:17:55;;;;;;;22.80;21.60;;;3.00;87.60;;;;;;5076386;28;20074;-75
2022/01/31 05:20:20;;;;;;;22.25;21.00;;;3.00;87.70;;;;;;5076536;28;20073;-74
2022/01/31 05:22:46;;;;;;;19.73;18.42;;;3.00;87.70;;;;;;5079523;28;20475;-75
2022/01/31 05:25:12;;;;;;;20.35;18.95;;;3.00;87.80;;;;;;5096182;28;20028;-74
2022/01/31 05:27:37;;;;;;;23.40;21.55;;;3.00;87.90;;;;;;5096359;28;20107;-78
2022/01/31 05:30:04;;;;;;;18.73;17.77;;;3.10;88.00;;;;;;5095435;28;20478;-77
2022/01/31 05:32:30;;;;;;;17.73;16.08;;;3.10;87.90;;;;;;5096256;28;20081;-78
2022/01/31 05:34:56;;;;;;;21.60;19.80;;;3.10;88.00;;;;;;5096266;28;20428;-79
2022/01/31 05:37:21;;;;;;;22.38;20.73;;;3.20;87.90;;;;;;5096418;28;20059;-79
2022/01/31 05:39:47;;;;;;;18.42;17.10;;;3.20;87.80;;;;;;5077900;28;20031;-80
2022/01/31 05:42:13;;;;;;;18.20;17.30;;;3.20;87.70;;;;;;5078013;28;20036;-78
2022/01/31 05:44:39;;;;;;;17.35;16.45;;;3.10;87.50;;;;;;5095938;28;20020;-79
2022/01/31 05:47:05;;;;;;;18.90;17.73;;;3.10;87.40;;;;;;5095330;28;20035;-80
2022/01/31 05:49:32;;;;;;;19.17;18.05;;;3.10;87.40;;;;;;5077491;28;20020;-79
2022/01/31 05:52:04;;;;;;;18.40;17.42;;;3.10;87.50;;;;;;5095711;28;20022;-79
2022/01/31 05:54:30;;;;;;;17.88;16.88;;;3.00;87.40;;;;;;5095268;28;20024;-81
2022/01/31 05:56:56;;;;;;;20.13;19.02;;;3.00;87.30;;;;;;5076992;28;20032;-82
2022/01/31 05:59:22;;;;;;;18.38;17.15;;;3.00;87.30;;;;;;5095130;28;20042;-79
2022/01/31 06:01:48;;;;;;;20.75;19.63;;;3.00;87.40;;;;;;5074410;28;20024;-76
2022/01/31 06:04:14;;;;;;;21.58;20.13;;;3.10;87.40;;;;;;5095595;28;20024;-79
2022/01/31 06:06:40;;;;;;;18.13;17.17;;;3.10;87.40;;;;;;5095580;28;20024;-79
2022/01/31 06:09:06;;;;;;;17.15;16.35;;;3.10;87.30;;;;;;5077332;28;20092;-79
2022/01/31 06:11:34;;;;;;;15.27;14.40;;;3.10;87.10;;;;;;5076997;28;20031;-79
2022/01/31 06:14:01;;;;;;;16.58;15.77;;;3.10;87.00;;;;;;5077239;28;20073;-65
2022/01/31 06:16:28;;;;;;;19.58;18.02;;;3.10;87.10;;;;;;5077778;28;20497;-68
2022/01/31 06:18:54;;;;;;;19.73;18.42;;;3.20;87.20;;;;;;5094390;28;20035;-66
2022/01/31 06:21:20;;;;;;;22.15;20.20;;;3.20;87.00;;;;;;5075844;28;20107;-65
2022/01/31 06:23:46;;;;;;;20.25;18.70;;;3.20;87.20;;;;;;5094921;28;20129;-65
2022/01/31 06:26:12;;;;;;;22.67;20.85;;;3.20;87.50;;;;;;5076979;28;20028;-65
2022/01/31 06:28:38;;;;;;;24.50;22.67;;;3.20;86.70;;;;;;5095069;28;20032;-66
2022/01/31 06:31:03;;;;;;;30.95;28.80;;;3.20;86.60;;;;;;5094839;28;20032;-66
2022/01/31 06:33:29;;;;;;;28.20;26.38;;;3.10;86.70;;;;;;5094832;28;20099;-64
2022/01/31 06:35:55;;;;;;;24.08;22.63;;;3.10;87.10;;;;;;5076468;28;20377;-66
2022/01/31 06:38:21;;;;;;;23.98;22.58;;;3.20;87.30;;;;;;5093461;28;20028;-66
2022/01/31 06:40:48;;;;;;;25.73;24.13;;;3.20;87.00;;;;;;5094997;28;20027;-65
2022/01/31 06:43:14;;;;;;;27.60;26.10;;;3.10;87.00;;;;;;5076639;28;20032;-64
2022/01/31 06:45:40;;;;;;;24.92;23.40;;;3.10;87.00;;;;;;5094952;28;20028;-64
2022/01/31 06:48:06;;;;;;;26.27;24.48;;;3.10;86.90;;;;;;5094934;28;20067;-64
2022/01/31 06:50:33;;;;;;;24.80;23.02;;;3.10;87.10;;;;;;5094369;28;20036;-65
2022/01/31 06:53:01;;;;;;;26.58;24.90;;;3.00;87.00;;;;;;5069431;28;20466;-66
2022/01/31 06:55:28;;;;;;;24.08;22.58;;;3.10;87.50;;;;;;5074518;28;20035;-66
2022/01/31 06:57:54;;;;;;;20.95;19.45;;;3.10;87.30;;;;;;5056261;28;20387;-66
2022/01/31 07:00:21;;;;;;;18.65;17.63;;;3.10;87.40;;;;;;5074078;28;20032;-65
2022/01/31 07:02:48;;;;;;;20.00;18.83;;;3.20;87.60;;;;;;5092373;28;20070;-66
2022/01/31 07:05:14;;;;;;;19.60;17.85;;;3.20;87.70;;;;;;5094051;28;20035;-64
2022/01/31 07:07:40;;;;;;;19.10;17.88;;;3.20;87.50;;;;;;5094516;28;20107;-65
2022/01/31 07:10:07;;;;;;;20.30;19.08;;;3.20;87.10;;;;;;5091939;28;20102;-66
2022/01/31 07:12:37;;;;;;;21.98;20.13;;;3.20;87.20;;;;;;5092623;28;20436;-65
2022/01/31 07:15:07;;;;;;;19.58;18.27;;;3.20;87.30;;;;;;5092590;28;20028;-66
2022/01/31 07:17:35;;;;;;;20.95;19.48;;;3.20;87.30;;;;;;5092307;28;20024;-65
2022/01/31 07:20:04;;;;;;;18.77;17.48;;;3.30;87.40;;;;;;5074510;28;20110;-67
2022/01/31 07:22:35;;;;;;;17.58;16.40;;;3.30;87.00;;;;;;5089987;28;20077;-67
2022/01/31 07:25:07;;;;;;;18.95;17.83;;;3.30;86.80;;;;;;5093763;28;20032;-67
2022/01/31 07:27:33;;;;;;;17.52;16.48;;;3.30;86.80;;;;;;5090046;28;20132;-67
2022/01/31 07:29:59;;;;;;;17.08;15.98;;;3.40;86.60;;;;;;5080544;28;20027;-65
2022/01/31 07:32:25;;;;;;;14.40;13.60;;;3.50;86.60;;;;;;5076941;28;20127;-67
2022/01/31 07:34:55;;;;;;;15.80;14.88;;;3.60;86.30;;;;;;5074730;28;20020;-66
2022/01/31 07:37:24;;;;;;;17.55;16.58;;;3.60;86.00;;;;;;5074642;28;20115;-68
2022/01/31 07:39:50;;;;;;;15.88;14.85;;;3.60;85.70;;;;;;5074251;28;20020;-68
2022/01/31 07:42:17;;;;;;;14.75;13.95;;;3.70;85.50;;;;;;5091249;28;20016;-67
2022/01/31 07:44:43;;;;;;;15.65;14.35;;;3.70;85.40;;;;;;5091999;28;20031;-68
2022/01/31 07:47:09;;;;;;;15.50;14.43;;;3.70;84.90;;;;;;5092524;28;20021;-66
2022/01/31 07:49:35;;;;;;;16.50;15.45;;;3.80;85.00;;;;;;5074364;28;20061;-66
2022/01/31 07:52:01;;;;;;;16.77;15.73;;;3.90;85.20;;;;;;5092129;28;20024;-64
2022/01/31 07:54:27;;;;;;;13.75;13.02;;;3.90;84.30;;;;;;5074205;28;20474;-65
2022/01/31 07:56:53;;;;;;;15.20;14.30;;;3.90;83.90;;;;;;5092208;28;20098;-66
2022/01/31 07:59:19;;;;;;;17.67;16.33;;;3.90;84.00;;;;;;5091990;28;20025;-66
2022/01/31 08:01:45;;;;;;;16.30;14.85;;;4.00;84.00;;;;;;5074170;28;20111;-66
2022/01/31 08:04:11;;;;;;;14.15;13.40;;;4.00;83.70;;;;;;5092298;28;20416;-66
2022/01/31 08:06:37;;;;;;;17.15;16.15;;;4.00;83.50;;;;;;5092182;28;20020;-68
2022/01/31 08:09:06;;;;;;;15.77;14.43;;;4.10;84.00;;;;;;5093421;28;20039;-69
2022/01/31 08:11:33;;;;;;;16.10;15.20;;;4.10;83.60;;;;;;5075390;28;20035;-69
2022/01/31 08:14:05;;;;;;;16.10;15.20;;;4.20;83.50;;;;;;5075055;28;20059;-69
2022/01/31 08:16:32;;;;;;;15.90;14.82;;;4.20;82.80;;;;;;5093386;28;20032;-67
2022/01/31 08:18:58;;;;;;;15.57;14.55;;;4.30;82.90;;;;;;5093775;28;20028;-64
2022/01/31 08:21:24;;;;;;;17.17;16.08;;;4.30;82.60;;;;;;5074849;28;20035;-65
2022/01/31 08:23:51;;;;;;;19.00;17.90;;;4.40;82.30;;;;;;5074948;28;20152;-64
2022/01/31 08:26:17;;;;;;;18.13;17.13;;;4.40;82.00;;;;;;5093382;28;20042;-65
2022/01/31 08:28:51;;;;;;;16.08;15.18;;;4.40;81.90;;;;;;5075410;28;20398;-65
2022/01/31 08:31:24;;;;;;;17.02;15.88;;;4.50;82.00;;;;;;5093840;28;20024;-64
2022/01/31 08:36:22;;;;;;;16.60;15.70;;;4.60;81.20;;;;;;5097150;28;20054;-66
2022/01/31 08:38:50;;;;;;;16.02;15.10;;;4.60;81.10;;;;;;5096242;28;20024;-66
2022/01/31 08:41:16;;;;;;;15.95;14.82;;;4.50;80.30;;;;;;5095305;28;20023;-66
2022/01/31 08:43:42;;;;;;;17.50;16.17;;;4.40;80.40;;;;;;5095727;28;20089;-65
2022/01/31 08:46:11;;;;;;;15.63;14.68;;;4.40;80.70;;;;;;5095367;28;20030;-66
2022/01/31 08:48:37;;;;;;;14.35;13.27;;;4.50;81.20;;;;;;5076951;28;20050;-67
2022/01/31 08:51:05;;;;;;;16.23;15.05;;;4.70;81.50;;;;;;5095652;28;20091;-66
2022/01/31 08:53:32;;;;;;;15.38;14.07;;;4.70;80.90;;;;;;5078371;28;20024;-68
2022/01/31 08:56:07;;;;;;;16.15;14.95;;;4.70;80.70;;;;;;5078544;28;20491;-67
2022/01/31 08:58:35;;;;;;;16.00;14.85;;;4.60;80.50;;;;;;5096810;28;20035;-67
2022/01/31 09:01:01;;;;;;;14.93;14.05;;;4.50;80.00;;;;;;5096839;28;20024;-67
2022/01/31 09:06:12;;;;;;;15.32;14.35;;;4.30;80.50;;;;;;5092788;28;20061;-66
2022/01/31 09:08:38;;;;;;;14.07;13.27;;;4.20;80.80;;;;;;5092868;28;20055;-67
2022/01/31 09:11:05;;;;;;;16.52;15.50;;;4.20;81.20;;;;;;5095411;28;20020;-66
2022/01/31 09:13:32;;;;;;;17.95;16.73;;;4.20;81.40;;;;;;5077845;28;20068;-67
2022/01/31 09:15:58;;;;;;;14.45;13.75;;;4.20;81.20;;;;;;5076660;28;20028;-66
2022/01/31 09:18:24;;;;;;;14.30;13.40;;;4.20;81.60;;;;;;5094837;28;20035;-66
2022/01/31 09:20:49;;;;;;;16.50;15.48;;;4.20;81.20;;;;;;5094775;28;20023;-65
2022/01/31 09:23:16;;;;;;;16.40;15.40;;;4.30;81.40;;;;;;5076453;28;20170;-66
2022/01/31 09:25:45;;;;;;;16.27;15.27;;;4.30;81.60;;;;;;5076641;28;20032;-67
2022/01/31 09:28:12;;;;;;;16.25;14.93;;;4.30;81.10;;;;;;5076479;28;20026;-65
2022/01/31 09:30:39;;;;;;;16.15;15.20;;;4.10;81.60;;;;;;5076364;28;20016;-65
2022/01/31 09:33:05;;;;;;;14.52;13.70;;;4.10;81.50;;;;;;5094595;28;20030;-65
2022/01/31 09:35:33;;;;;;;16.77;15.63;;;4.00;81.10;;;;;;5076469;28;20031;-67
2022/01/31 09:37:59;;;;;;;14.68;13.98;;;4.00;81.00;;;;;;5094273;28;20013;-67
2022/01/31 09:40:25;;;;;;;16.08;15.13;;;4.00;81.10;;;;;;5076532;28;20028;-67
2022/01/31 09:48:37;;;;;;;15.63;14.77;;;4.20;81.40;;;;;;5092231;28;20360;-66
2022/01/31 09:51:12;;;;;;;16.10;15.23;;;4.20;80.80;;;;;;5093531;28;20031;-68
2022/01/31 09:53:56;;;;;;;14.23;13.27;;;4.20;80.10;;;;;;5092649;28;20023;-67
2022/01/31 09:56:25;;;;;;;16.45;15.32;;;4.30;80.50;;;;;;5096847;28;20048;-65
2022/01/31 09:58:53;;;;;;;15.15;14.25;;;4.40;80.20;;;;;;5107744;28;20032;-66
2022/01/31 10:01:36;;;;;;;13.82;13.02;;;4.40;79.50;;;;;;5097109;28;20047;-68
2022/01/31 10:04:19;;;;;;;16.08;14.90;;;4.40;79.40;;;;;;5072491;28;20386;-67
2022/01/31 10:06:52;;;;;;;13.32;12.52;;;4.50;79.30;;;;;;5093087;28;20020;-67
2022/01/31 10:09:25;;;;;;;14.18;13.27;;;4.50;77.50;;;;;;5092047;28;20046;-66
2022/01/31 10:16:24;;;;;;;14.98;14.27;;;4.40;77.70;;;;;;5093679;28;20454;-66
2022/01/31 10:18:01;;;;;;;15.18;14.32;;;4.50;77.20;;;;;;5092231;28;20034;-67
2022/01/31 10:20:30;;;;;;;15.75;14.60;;;4.50;77.30;;;;;;5093538;28;20020;-66
2022/01/31 10:23:04;;;;;;;15.10;14.20;;;4.60;76.90;;;;;;5093484;28;20043;-64
2022/01/31 10:25:32;;;;;;;14.40;13.20;;;4.50;75.60;;;;;;5089540;28;20030;-66
2022/01/31 10:27:58;;;;;;;15.48;14.48;;;4.40;75.60;;;;;;5093636;28;20088;-64
2022/01/31 10:30:27;;;;;;;13.63;12.85;;;4.40;75.60;;;;;;5075779;28;20028;-66
2022/01/31 10:32:55;;;;;;;13.23;12.63;;;4.30;75.30;;;;;;5094505;28;20503;-72
2022/01/31 10:35:23;;;;;;;13.30;12.55;;;4.30;74.90;;;;;;5075290;28;20032;-73
2022/01/31 10:37:53;;;;;;;15.70;14.75;;;4.40;75.80;;;;;;5074881;28;20410;-73
2022/01/31 10:43:51;;;;;;;14.63;14.02;;;4.50;75.30;;;;;;5094194;28;20043;-75
2022/01/31 10:46:33;;;;;;;13.05;12.50;;;4.50;75.30;;;;;;5091772;28;20047;-74
2022/01/31 10:54:28;;;;;;;12.73;12.10;;;4.30;74.70;;;;;;5094358;28;20035;-72
2022/01/31 10:57:03;;;;;;;14.48;13.75;;;4.30;74.40;;;;;;5094870;28;20108;-72
2022/01/31 10:59:37;;;;;;;15.10;14.07;;;4.10;74.80;;;;;;5076485;28;20028;-73
2022/01/31 11:02:25;;;;;;;13.98;13.35;;;4.00;75.30;;;;;;5075643;28;20020;-74
2022/01/31 11:04:52;;;;;;;15.10;14.20;;;4.20;76.10;;;;;;5090882;28;20024;-76
2022/01/31 11:07:23;;;;;;;16.05;14.88;;;4.30;76.00;;;;;;5073287;28;20036;-78
2022/01/31 11:09:51;;;;;;;15.70;14.70;;;4.30;76.10;;;;;;5075217;28;20024;-74
2022/01/31 11:12:19;;;;;;;13.57;12.93;;;4.40;76.50;;;;;;5072123;28;20355;-75
2022/01/31 11:14:46;;;;;;;14.10;13.32;;;4.50;76.20;;;;;;5075484;28;20038;-72
2022/01/31 11:17:15;;;;;;;14.10;13.32;;;4.60;76.10;;;;;;5091209;28;20414;-72
2022/01/31 11:19:44;;;;;;;14.48;13.57;;;4.50;75.40;;;;;;5093111;28;20016;-76
2022/01/31 11:22:12;;;;;;;15.00;14.00;;;4.30;75.20;;;;;;5074590;28;20169;-74
2022/01/31 11:25:05;;;;;;;16.13;15.10;;;4.20;75.60;;;;;;5074312;28;20135;-73
2022/01/31 11:27:35;;;;;;;14.88;13.88;;;4.20;76.30;;;;;;5054693;28;20048;-75
2022/01/31 11:30:02;;;;;;;15.45;14.48;;;4.30;76.70;;;;;;5072317;28;20086;-76
2022/01/31 11:32:28;;;;;;;16.90;15.93;;;4.20;76.30;;;;;;5087112;28;20035;-78
2022/01/31 11:34:55;;;;;;;15.65;14.68;;;4.10;76.60;;;;;;5073930;28;20020;-72
2022/01/31 11:37:22;;;;;;;15.18;14.32;;;4.10;76.80;;;;;;5071957;28;20042;-71
2022/01/31 11:40:02;;;;;;;16.23;15.43;;;4.10;76.50;;;;;;5073614;28;20057;-69
2022/01/31 11:42:28;;;;;;;17.55;16.45;;;4.00;76.70;;;;;;5072179;28;20115;-71
2022/01/31 11:45:01;;;;;;;17.02;16.02;;;3.90;76.10;;;;;;5073561;28;20485;-74
2022/01/31 11:47:29;;;;;;;16.55;15.65;;;3.90;76.30;;;;;;5092787;28;20120;-75
2022/01/31 11:50:01;;;;;;;16.33;15.43;;;3.90;76.90;;;;;;5091712;28;20024;-71
2022/01/31 11:52:32;;;;;;;16.05;15.15;;;4.00;77.00;;;;;;5090454;28;20082;-72
2022/01/31 11:55:03;;;;;;;18.50;17.08;;;4.20;77.20;;;;;;5089749;28;20020;-73
2022/01/31 11:57:31;;;;;;;18.55;17.25;;;4.20;76.90;;;;;;5073589;28;20485;-71
2022/01/31 12:00:09;;;;;;;15.77;14.45;;;4.20;76.70;;;;;;5091324;28;20532;-73
2022/01/31 12:02:47;;;;;;;18.95;17.25;;;4.20;76.70;;;;;;5091983;28;20524;-72
2022/01/31 12:05:18;;;;;;;18.10;16.80;;;4.20;76.80;;;;;;5088301;28;20509;-71
2022/01/31 12:07:45;;;;;;;15.70;14.77;;;4.30;76.60;;;;;;5073196;28;20027;-74
2022/01/31 12:10:28;;;;;;;16.80;15.85;;;4.20;75.90;;;;;;5093479;28;20032;-74
2022/01/31 12:12:59;;;;;;;16.63;15.55;;;4.00;75.80;;;;;;5075067;28;20034;-74
2022/01/31 12:24:28;;;;;;;17.27;15.98;;;4.00;76.00;;;;;;5093234;28;20092;-74
2022/01/31 12:26:58;;;;;;;17.48;16.42;;;4.00;76.00;;;;;;5085504;28;20048;-71
2022/01/31 12:29:30;;;;;;;17.92;16.83;;;4.00;76.00;;;;;;5078086;28;20036;-71
2022/01/31 12:32:16;;;;;;;15.10;14.20;;;4.10;76.10;;;;;;5094230;28;20026;-72
2022/01/31 12:34:55;;;;;;;16.07;15.10;;;4.10;76.00;;;;;;5097189;28;20111;-71
2022/01/31 12:37:49;;;;;;;15.02;14.10;;;4.10;75.10;;;;;;5076846;28;20023;-72
2022/01/31 12:40:29;;;;;;;17.50;16.50;;;4.10;74.60;;;;;;5075759;28;20032;-74
2022/01/31 12:45:43;;;;;;;14.57;13.73;;;4.20;74.60;;;;;;5097307;28;20035;-71
2022/01/31 12:48:12;;;;;;;15.98;15.18;;;4.20;74.30;;;;;;5096413;28;20024;-72
2022/01/31 12:50:52;;;;;;;15.55;14.70;;;4.20;74.20;;;;;;5078363;28;20039;-70
2022/01/31 12:53:30;;;;;;;14.27;13.48;;;4.20;73.70;;;;;;5059855;28;20364;-70
2022/01/31 12:56:21;;;;;;;14.70;13.60;;;4.20;73.50;;;;;;5095389;28;20031;-71
2022/01/31 12:58:50;;;;;;;17.23;15.93;;;4.20;72.80;;;;;;5093065;28;20027;-69
2022/01/31 13:01:26;;;;;;;15.18;14.20;;;4.30;72.60;;;;;;5094016;28;20028;-76
2022/01/31 13:04:10;;;;;;;16.80;15.48;;;4.30;72.10;;;;;;5096050;28;20027;-79
2022/01/31 13:06:41;;;;;;;16.00;15.02;;;4.30;71.50;;;;;;5075638;28;20035;-73
2022/01/31 13:09:19;;;;;;;15.60;14.63;;;4.20;71.50;;;;;;5095009;28;20488;-75
2022/01/31 13:11:47;;;;;;;16.05;15.13;;;4.20;70.60;;;;;;5094724;28;20028;-74
2022/01/31 13:14:19;;;;;;;14.18;13.48;;;4.20;70.30;;;;;;5094761;28;20016;-75
2022/01/31 13:17:12;;;;;;;14.02;13.32;;;4.20;70.30;;;;;;5071957;28;20032;-73
2022/01/31 13:19:41;;;;;;;13.57;12.88;;;4.20;70.70;;;;;;5093386;28;20078;-74
2022/01/31 13:22:24;;;;;;;14.32;13.48;;;4.30;70.30;;;;;;5075905;28;20031;-73